Time;durP1;ratioP1;P1;durP2;ratioP2;P2;SDS_P1;SDS_P2;PMS_P1;PMS_P2;Temp;Humidity;BMP_temperature;BMP_pressure;BME280_temperature;BME280_humidity;BME280_pressure;Samples;Min_cycle;Max_cycle;Signal;HPM_P1;HPM_P2
2023/07/24 00:00:19;;;;;;;2.40;2.00;;;;;;;;;;5095562;28;20202;-41
2023/07/24 00:03:06;;;;;;;3.10;2.25;;;;;;;;;;5095016;28;20259;-41
2023/07/24 00:05:34;;;;;;;3.58;2.50;;;;;;;;;;5095114;28;20218;-40
2023/07/24 00:08:01;;;;;;;2.72;1.83;;;;;;;;;;5095284;28;20206;-45
2023/07/24 00:10:29;;;;;;;4.47;2.33;;;;;;;;;;5094996;28;20199;-43
2023/07/24 00:12:56;;;;;;;3.88;2.60;;;;;;;;;;5095233;28;20199;-41
2023/07/24 00:15:23;;;;;;;2.90;1.83;;;;;;;;;;5095141;28;20207;-41
2023/07/24 00:17:50;;;;;;;3.25;2.08;;;;;;;;;;5094833;28;20202;-45
2023/07/24 00:20:17;;;;;;;3.40;2.00;;;;;;;;;;5094904;28;20264;-42
2023/07/24 00:22:44;;;;;;;4.65;2.50;;;;;;;;;;5095015;28;20202;-40
2023/07/24 00:25:12;;;;;;;7.45;2.22;;;;;;;;;;5094744;28;20671;-41
2023/07/24 00:27:39;;;;;;;3.42;2.42;;;;;;;;;;5094720;28;20198;-44
2023/07/24 00:30:07;;;;;;;3.20;2.08;;;;;;;;;;5094635;28;20198;-44
2023/07/24 00:32:34;;;;;;;4.38;2.50;;;;;;;;;;5094889;28;20216;-41
2023/07/24 00:35:01;;;;;;;4.05;2.33;;;;;;;;;;5094737;28;20287;-41
2023/07/24 00:37:28;;;;;;;3.75;2.28;;;;;;;;;;5094935;28;20266;-41
2023/07/24 00:39:56;;;;;;;2.78;2.17;;;;;;;;;;5094406;28;20586;-42
2023/07/24 00:42:23;;;;;;;9.25;2.28;;;;;;;;;;5094818;28;20194;-42
2023/07/24 00:44:50;;;;;;;3.80;2.17;;;;;;;;;;5094320;28;20260;-41
2023/07/24 00:47:17;;;;;;;5.22;2.28;;;;;;;;;;5094645;28;20194;-47
2023/07/24 00:49:46;;;;;;;4.50;2.38;;;;;;;;;;5094194;28;20210;-40
2023/07/24 00:52:14;;;;;;;3.75;2.17;;;;;;;;;;5076269;28;20234;-43
2023/07/24 00:54:43;;;;;;;2.85;1.80;;;;;;;;;;5076111;28;20230;-43
2023/07/24 00:57:12;;;;;;;3.50;2.05;;;;;;;;;;5060088;28;20210;-41
2023/07/24 00:59:42;;;;;;;5.28;2.50;;;;;;;;;;5076510;28;20225;-40
2023/07/24 01:02:09;;;;;;;2.80;1.92;;;;;;;;;;5094295;28;20199;-44
2023/07/24 01:04:39;;;;;;;3.97;2.10;;;;;;;;;;5076322;28;20229;-41
2023/07/24 01:07:06;;;;;;;5.18;2.28;;;;;;;;;;5075932;28;20655;-42
2023/07/24 01:09:34;;;;;;;4.28;2.38;;;;;;;;;;5094112;28;20199;-40
2023/07/24 01:12:04;;;;;;;3.60;2.33;;;;;;;;;;5093921;28;20256;-41
2023/07/24 01:14:44;;;;;;;2.67;1.92;;;;;;;;;;5076060;28;20229;-45
2023/07/24 01:17:16;;;;;;;4.75;2.20;;;;;;;;;;5093858;28;20191;-43
2023/07/24 01:19:48;;;;;;;4.15;2.40;;;;;;;;;;5093994;28;20234;-41
2023/07/24 01:22:24;;;;;;;2.58;1.90;;;;;;;;;;5075840;28;20276;-44
2023/07/24 01:24:54;;;;;;;3.47;2.53;;;;;;;;;;5094075;28;20573;-41
2023/07/24 01:27:25;;;;;;;3.53;2.05;;;;;;;;;;5093737;28;20199;-46
2023/07/24 01:29:52;;;;;;;5.90;2.42;;;;;;;;;;5093520;28;20659;-41
2023/07/24 01:32:20;;;;;;;3.63;2.30;;;;;;;;;;5075656;28;20201;-41
2023/07/24 01:34:48;;;;;;;3.45;2.25;;;;;;;;;;5093433;28;20267;-41
2023/07/24 01:37:16;;;;;;;4.97;2.28;;;;;;;;;;5059044;28;20701;-41
2023/07/24 01:39:44;;;;;;;7.53;2.15;;;;;;;;;;5093748;28;20194;-41
2023/07/24 01:42:11;;;;;;;3.60;1.95;;;;;;;;;;5075820;28;20195;-41
2023/07/24 01:44:38;;;;;;;4.63;2.58;;;;;;;;;;5093723;28;20260;-42
2023/07/24 01:47:05;;;;;;;5.22;2.40;;;;;;;;;;5075431;28;20234;-46
2023/07/24 01:49:33;;;;;;;5.80;2.17;;;;;;;;;;5093615;28;20211;-41
2023/07/24 01:52:00;;;;;;;4.72;2.38;;;;;;;;;;5093408;28;20685;-44
2023/07/24 01:54:27;;;;;;;3.22;2.05;;;;;;;;;;5093261;28;20691;-41
2023/07/24 01:56:54;;;;;;;5.57;2.47;;;;;;;;;;5093327;28;20205;-45
2023/07/24 01:59:21;;;;;;;4.05;2.35;;;;;;;;;;5075496;28;20611;-42
2023/07/24 02:01:48;;;;;;;4.53;2.30;;;;;;;;;;5075315;28;20225;-46
2023/07/24 02:04:16;;;;;;;4.60;2.60;;;;;;;;;;5075404;28;20281;-41
2023/07/24 02:06:43;;;;;;;3.88;2.40;;;;;;;;;;5093196;28;20609;-41
2023/07/24 02:09:10;;;;;;;3.78;2.40;;;;;;;;;;5093433;28;20206;-42
2023/07/24 02:11:37;;;;;;;3.67;2.05;;;;;;;;;;5093345;28;20538;-43
2023/07/24 02:14:05;;;;;;;2.78;2.20;;;;;;;;;;5079074;28;20235;-44
2023/07/24 02:16:32;;;;;;;3.60;2.25;;;;;;;;;;5079216;28;20350;-41
2023/07/24 02:19:00;;;;;;;4.47;2.20;;;;;;;;;;5096915;28;20198;-40
2023/07/24 02:21:27;;;;;;;4.10;2.28;;;;;;;;;;5096820;28;20229;-42
2023/07/24 02:23:54;;;;;;;3.83;2.30;;;;;;;;;;5096747;28;20221;-41
2023/07/24 02:26:21;;;;;;;3.95;2.10;;;;;;;;;;5096921;28;20198;-42
2023/07/24 02:28:49;;;;;;;3.65;2.10;;;;;;;;;;5097018;28;20275;-42
2023/07/24 02:31:16;;;;;;;4.43;2.35;;;;;;;;;;5096977;28;20556;-41
2023/07/24 02:33:43;;;;;;;3.50;2.10;;;;;;;;;;5078735;28;20210;-45
2023/07/24 02:36:10;;;;;;;3.72;2.05;;;;;;;;;;5096855;28;20198;-42
2023/07/24 02:38:37;;;;;;;4.25;2.17;;;;;;;;;;5078564;28;20552;-43
2023/07/24 02:41:06;;;;;;;3.22;2.22;;;;;;;;;;5096564;28;20199;-40
2023/07/24 02:43:35;;;;;;;2.88;1.92;;;;;;;;;;5078709;28;20203;-42
2023/07/24 02:46:02;;;;;;;4.13;2.45;;;;;;;;;;5096612;28;20199;-40
2023/07/24 02:48:30;;;;;;;4.80;2.35;;;;;;;;;;5078389;28;20656;-40
2023/07/24 02:50:57;;;;;;;3.88;2.05;;;;;;;;;;5096470;28;20206;-41
2023/07/24 02:53:24;;;;;;;6.95;2.47;;;;;;;;;;5078237;28;20203;-38
2023/07/24 02:55:51;;;;;;;2.55;1.70;;;;;;;;;;5078264;28;20231;-47
2023/07/24 02:58:19;;;;;;;2.70;1.67;;;;;;;;;;5078501;28;20210;-43
2023/07/24 03:00:46;;;;;;;4.35;2.30;;;;;;;;;;5078096;28;20198;-42
2023/07/24 03:03:13;;;;;;;7.72;2.58;;;;;;;;;;5096092;28;20217;-43
2023/07/24 03:05:40;;;;;;;7.70;2.55;;;;;;;;;;5096166;28;20203;-42
2023/07/24 03:08:07;;;;;;;3.90;2.28;;;;;;;;;;5096078;28;20256;-39
2023/07/24 03:10:34;;;;;;;4.65;2.35;;;;;;;;;;5077876;28;20207;-41
2023/07/24 03:13:02;;;;;;;3.22;2.05;;;;;;;;;;5095788;28;20796;-41
2023/07/24 03:15:29;;;;;;;3.38;2.30;;;;;;;;;;5096028;28;20219;-41
2023/07/24 03:17:56;;;;;;;3.65;2.35;;;;;;;;;;5091584;28;20202;-43
2023/07/24 03:20:23;;;;;;;4.43;1.95;;;;;;;;;;5097484;28;20230;-43
2023/07/24 03:22:51;;;;;;;5.05;2.40;;;;;;;;;;5115278;28;20189;-41
2023/07/24 03:25:18;;;;;;;3.03;1.90;;;;;;;;;;5114675;28;20202;-41
2023/07/24 03:27:45;;;;;;;4.65;2.40;;;;;;;;;;5115213;28;20336;-43
2023/07/24 03:30:12;;;;;;;2.63;2.08;;;;;;;;;;5114706;28;20204;-44
2023/07/24 03:32:39;;;;;;;2.83;1.85;;;;;;;;;;5100666;28;20224;-41
2023/07/24 03:35:07;;;;;;;4.53;2.45;;;;;;;;;;5103666;28;20218;-49
2023/07/24 03:37:35;;;;;;;4.05;2.38;;;;;;;;;;5082822;28;20195;-44
2023/07/24 03:40:04;;;;;;;3.70;2.33;;;;;;;;;;5102492;28;20239;-41
2023/07/24 03:42:31;;;;;;;4.78;2.30;;;;;;;;;;5103514;28;20647;-45
2023/07/24 03:44:59;;;;;;;3.60;2.30;;;;;;;;;;5103199;28;20266;-44
2023/07/24 03:47:26;;;;;;;4.15;2.40;;;;;;;;;;5085395;28;20198;-41
2023/07/24 03:49:53;;;;;;;3.25;2.20;;;;;;;;;;5098966;28;20669;-40
2023/07/24 03:52:21;;;;;;;4.57;2.53;;;;;;;;;;5101564;28;20217;-45
2023/07/24 03:54:48;;;;;;;3.72;2.25;;;;;;;;;;5105709;28;20215;-43
2023/07/24 03:57:15;;;;;;;3.25;2.05;;;;;;;;;;5104509;28;20213;-42
2023/07/24 03:59:42;;;;;;;3.60;2.00;;;;;;;;;;5106100;28;20273;-42
2023/07/24 04:02:10;;;;;;;4.20;2.53;;;;;;;;;;5104882;28;20255;-45
2023/07/24 04:04:37;;;;;;;4.00;2.60;;;;;;;;;;5086577;28;20286;-43
2023/07/24 04:07:05;;;;;;;3.95;2.35;;;;;;;;;;5103171;28;20198;-41
2023/07/24 04:09:32;;;;;;;3.53;2.30;;;;;;;;;;5092889;28;20198;-47
2023/07/24 04:12:00;;;;;;;4.57;2.33;;;;;;;;;;5102456;28;20233;-43
2023/07/24 04:14:27;;;;;;;4.90;2.28;;;;;;;;;;5108644;28;20230;-42
2023/07/24 04:16:55;;;;;;;3.42;2.03;;;;;;;;;;5114185;28;20221;-42
2023/07/24 04:19:22;;;;;;;3.78;2.03;;;;;;;;;;5090875;28;20649;-43
2023/07/24 04:21:50;;;;;;;3.35;2.08;;;;;;;;;;5094313;28;20245;-42
2023/07/24 04:24:17;;;;;;;5.05;2.53;;;;;;;;;;5105782;28;20226;-42
2023/07/24 04:26:44;;;;;;;4.90;2.70;;;;;;;;;;5110273;28;20226;-43
2023/07/24 04:29:11;;;;;;;4.40;2.40;;;;;;;;;;5102037;28;20230;-40
2023/07/24 04:31:38;;;;;;;3.33;2.03;;;;;;;;;;5108396;28;20221;-41
2023/07/24 04:34:05;;;;;;;3.78;1.83;;;;;;;;;;5102670;28;20234;-41
2023/07/24 04:36:33;;;;;;;4.18;2.60;;;;;;;;;;5106607;28;20235;-42
2023/07/24 04:39:00;;;;;;;3.35;1.98;;;;;;;;;;5114509;28;20225;-44
2023/07/24 04:41:27;;;;;;;4.35;2.42;;;;;;;;;;5110400;28;20222;-40
2023/07/24 04:43:54;;;;;;;4.75;2.22;;;;;;;;;;5114111;28;20222;-42
2023/07/24 04:46:21;;;;;;;4.30;2.45;;;;;;;;;;5113797;28;20279;-42
2023/07/24 04:48:48;;;;;;;5.30;2.90;;;;;;;;;;5114108;28;20222;-41
2023/07/24 04:51:16;;;;;;;3.50;2.08;;;;;;;;;;5113796;28;20234;-42
2023/07/24 04:53:43;;;;;;;4.72;2.15;;;;;;;;;;5113844;28;20304;-40
2023/07/24 04:56:10;;;;;;;4.80;2.17;;;;;;;;;;5113154;28;20253;-42
2023/07/24 04:58:37;;;;;;;15.65;3.25;;;;;;;;;;5113837;28;20710;-40
2023/07/24 05:01:05;;;;;;;7.88;2.53;;;;;;;;;;5113250;28;21295;-40
2023/07/24 05:03:32;;;;;;;6.20;2.30;;;;;;;;;;5114071;28;20250;-40
2023/07/24 05:05:59;;;;;;;6.65;3.00;;;;;;;;;;5113526;28;20233;-41
2023/07/24 05:08:26;;;;;;;4.45;2.25;;;;;;;;;;5111783;28;20222;-41
2023/07/24 05:10:57;;;;;;;5.18;2.40;;;;;;;;;;5114334;28;20205;-43
2023/07/24 05:13:25;;;;;;;4.57;2.40;;;;;;;;;;5114318;28;20608;-43
2023/07/24 05:15:52;;;;;;;5.65;2.67;;;;;;;;;;5112648;28;20233;-40
2023/07/24 05:18:19;;;;;;;16.15;6.25;;;;;;;;;;5112478;28;20197;-42
2023/07/24 05:20:48;;;;;;;6.55;3.10;;;;;;;;;;5113626;28;20234;-43
2023/07/24 05:23:15;;;;;;;4.55;2.45;;;;;;;;;;5107263;28;20198;-43
2023/07/24 05:25:43;;;;;;;3.28;2.47;;;;;;;;;;5093834;28;20556;-40
2023/07/24 05:28:11;;;;;;;4.32;2.25;;;;;;;;;;5093194;28;20195;-42
2023/07/24 05:30:38;;;;;;;5.60;2.30;;;;;;;;;;5093542;28;20206;-42
2023/07/24 05:33:05;;;;;;;4.13;2.40;;;;;;;;;;5093783;28;20642;-42
2023/07/24 05:35:33;;;;;;;4.63;2.47;;;;;;;;;;5093710;28;20226;-40
2023/07/24 05:38:00;;;;;;;3.47;1.98;;;;;;;;;;5093578;28;20207;-42
2023/07/24 05:40:28;;;;;;;3.97;2.47;;;;;;;;;;5093546;28;20564;-41
2023/07/24 05:42:55;;;;;;;3.83;2.25;;;;;;;;;;5093365;28;20667;-41
2023/07/24 05:45:22;;;;;;;4.88;2.30;;;;;;;;;;5093751;28;20263;-39
2023/07/24 05:47:49;;;;;;;4.07;2.00;;;;;;;;;;5092906;28;20281;-43
2023/07/24 05:50:17;;;;;;;3.63;2.30;;;;;;;;;;5094036;28;20206;-40
2023/07/24 05:52:44;;;;;;;4.85;2.55;;;;;;;;;;5093353;28;20720;-44
2023/07/24 05:55:11;;;;;;;32.08;17.05;;;;;;;;;;5093420;28;20223;-40
2023/07/24 05:57:38;;;;;;;7.88;3.97;;;;;;;;;;5093624;28;20571;-40
2023/07/24 06:00:06;;;;;;;4.10;2.28;;;;;;;;;;5093270;28;20690;-42
2023/07/24 06:02:43;;;;;;;3.78;2.33;;;;;;;;;;5093703;28;20191;-40
2023/07/24 06:05:10;;;;;;;5.03;2.28;;;;;;;;;;5093435;28;20209;-40
2023/07/24 06:07:37;;;;;;;3.65;2.22;;;;;;;;;;5093215;28;20202;-40
2023/07/24 06:10:05;;;;;;;5.78;2.60;;;;;;;;;;5093300;28;20207;-40
2023/07/24 06:12:32;;;;;;;4.85;3.13;;;;;;;;;;5093190;28;20202;-43
2023/07/24 06:14:59;;;;;;;3.25;2.13;;;;;;;;;;5093152;28;20241;-44
2023/07/24 06:17:26;;;;;;;4.30;2.40;;;;;;;;;;5093500;28;20551;-40
2023/07/24 06:19:54;;;;;;;4.85;2.15;;;;;;;;;;5097377;28;20230;-38
2023/07/24 06:22:21;;;;;;;7.65;2.53;;;;;;;;;;5101409;28;20217;-41
2023/07/24 06:24:48;;;;;;;3.75;2.33;;;;;;;;;;5102317;28;20186;-38
2023/07/24 06:27:16;;;;;;;3.97;2.25;;;;;;;;;;5103985;28;20217;-40
2023/07/24 06:29:43;;;;;;;3.03;2.22;;;;;;;;;;5050914;28;20187;-40
2023/07/24 06:32:10;;;;;;;4.38;2.30;;;;;;;;;;5101780;28;20242;-38
2023/07/24 06:34:38;;;;;;;5.07;2.50;;;;;;;;;;5101593;28;20440;-41
2023/07/24 06:37:05;;;;;;;4.20;2.47;;;;;;;;;;5102810;28;20186;-39
2023/07/24 06:39:48;;;;;;;7.80;2.05;;;;;;;;;;5099048;28;20229;-38
2023/07/24 06:42:15;;;;;;;4.13;2.13;;;;;;;;;;5101057;28;20219;-38
2023/07/24 06:44:42;;;;;;;3.90;2.78;;;;;;;;;;5101417;28;20217;-42
2023/07/24 06:47:09;;;;;;;3.33;2.17;;;;;;;;;;5097058;28;20223;-40
2023/07/24 06:49:37;;;;;;;6.20;2.65;;;;;;;;;;5091631;28;20222;-42
2023/07/24 06:52:04;;;;;;;4.95;2.60;;;;;;;;;;5091945;28;20230;-42
2023/07/24 06:54:32;;;;;;;5.93;2.20;;;;;;;;;;5074854;28;20198;-39
2023/07/24 06:56:59;;;;;;;3.55;2.33;;;;;;;;;;5092389;28;20683;-39
2023/07/24 06:59:26;;;;;;;3.90;2.28;;;;;;;;;;5095148;28;20203;-40
2023/07/24 07:01:53;;;;;;;5.05;2.45;;;;;;;;;;5095359;28;20198;-43
2023/07/24 07:04:20;;;;;;;7.22;2.80;;;;;;;;;;5114003;28;20247;-45
2023/07/24 07:06:47;;;;;;;4.45;2.53;;;;;;;;;;5116258;28;20197;-39
2023/07/24 07:09:15;;;;;;;3.35;2.38;;;;;;;;;;5116496;28;20198;-38
2023/07/24 07:11:45;;;;;;;3.60;2.10;;;;;;;;;;5103986;28;20290;-41
2023/07/24 07:14:13;;;;;;;3.38;2.17;;;;;;;;;;5095899;28;20636;-43
2023/07/24 07:16:40;;;;;;;7.82;2.55;;;;;;;;;;5095673;28;20261;-39
2023/07/24 07:19:09;;;;;;;3.38;2.25;;;;;;;;;;5096092;28;20210;-38
2023/07/24 07:21:36;;;;;;;3.75;2.42;;;;;;;;;;5095908;28;20230;-43
2023/07/24 07:24:04;;;;;;;5.00;2.67;;;;;;;;;;5103451;27;20220;-41
2023/07/24 07:26:31;;;;;;;3.75;2.30;;;;;;;;;;5108365;27;20619;-44
2023/07/24 07:28:59;;;;;;;3.13;2.30;;;;;;;;;;5105978;28;20212;-39
2023/07/24 07:31:26;;;;;;;3.85;2.28;;;;;;;;;;5103127;28;20194;-39
2023/07/24 07:33:54;;;;;;;5.07;2.50;;;;;;;;;;5105740;28;20654;-43
2023/07/24 07:36:22;;;;;;;3.45;2.17;;;;;;;;;;5103084;28;20697;-44
2023/07/24 07:38:49;;;;;;;5.40;2.30;;;;;;;;;;5102669;27;20209;-44
2023/07/24 07:41:16;;;;;;;4.55;2.70;;;;;;;;;;5103064;28;20198;-44
2023/07/24 07:43:44;;;;;;;4.07;2.53;;;;;;;;;;5104518;28;20186;-43
2023/07/24 07:46:11;;;;;;;3.60;1.98;;;;;;;;;;5105398;28;20561;-43
2023/07/24 07:48:39;;;;;;;2.53;1.80;;;;;;;;;;5113057;28;20202;-42
2023/07/24 07:51:06;;;;;;;2.65;1.90;;;;;;;;;;5103571;28;20217;-43
2023/07/24 07:53:34;;;;;;;4.45;2.05;;;;;;;;;;5104120;27;20190;-44
2023/07/24 07:56:01;;;;;;;3.33;2.10;;;;;;;;;;5102873;28;20206;-43
2023/07/24 07:58:29;;;;;;;6.65;2.38;;;;;;;;;;5103090;28;20194;-43
2023/07/24 08:00:56;;;;;;;5.13;2.53;;;;;;;;;;5099111;28;20285;-43
2023/07/24 08:03:23;;;;;;;3.72;2.30;;;;;;;;;;5105818;28;20209;-44
2023/07/24 08:05:50;;;;;;;3.83;2.28;;;;;;;;;;5099926;28;20202;-44
2023/07/24 08:08:18;;;;;;;5.03;2.22;;;;;;;;;;5105262;28;20580;-43
2023/07/24 08:10:45;;;;;;;5.80;2.25;;;;;;;;;;5101669;28;20666;-43
2023/07/24 08:13:12;;;;;;;2.95;1.63;;;;;;;;;;5104724;28;20202;-48
2023/07/24 08:15:39;;;;;;;6.28;2.45;;;;;;;;;;5102434;28;20420;-43
2023/07/24 08:18:06;;;;;;;3.83;2.10;;;;;;;;;;5103820;28;20206;-42
2023/07/24 08:20:37;;;;;;;4.78;2.15;;;;;;;;;;5103720;27;20237;-44
2023/07/24 08:23:04;;;;;;;3.58;2.15;;;;;;;;;;5103249;28;20194;-41
2023/07/24 08:25:31;;;;;;;3.50;1.75;;;;;;;;;;5110338;28;20202;-39
2023/07/24 08:27:59;;;;;;;5.13;2.20;;;;;;;;;;5114381;28;20194;-42
2023/07/24 08:30:33;;;;;;;3.08;1.73;;;;;;;;;;5106152;28;20190;-41
2023/07/24 08:33:01;;;;;;;3.13;1.77;;;;;;;;;;5099958;28;20202;-41
2023/07/24 08:35:28;;;;;;;3.33;2.15;;;;;;;;;;5095831;28;20233;-51
2023/07/24 08:37:56;;;;;;;3.15;1.98;;;;;;;;;;5101847;28;20198;-41
2023/07/24 08:40:23;;;;;;;3.17;2.03;;;;;;;;;;5105941;28;20210;-45
2023/07/24 08:42:51;;;;;;;5.60;2.30;;;;;;;;;;5087595;28;20666;-46
2023/07/24 08:45:18;;;;;;;2.88;1.90;;;;;;;;;;5102892;28;20260;-47
2023/07/24 08:47:46;;;;;;;3.28;1.92;;;;;;;;;;5103569;28;20198;-47
2023/07/24 08:50:15;;;;;;;3.63;2.20;;;;;;;;;;5090375;28;20536;-47
2023/07/24 08:52:44;;;;;;;3.92;2.15;;;;;;;;;;5102600;28;20199;-45
2023/07/24 08:55:12;;;;;;;5.32;2.00;;;;;;;;;;5103730;28;20523;-45
2023/07/24 08:57:39;;;;;;;3.03;2.03;;;;;;;;;;5083212;28;20226;-46
2023/07/24 09:00:06;;;;;;;1.52;1.35;;;;;;;;;;5099130;27;20206;-45
2023/07/24 09:02:35;;;;;;;2.80;1.20;;;;;;;;;;5102444;28;20281;-44
2023/07/24 09:05:03;;;;;;;1.98;1.48;;;;;;;;;;5101663;28;20186;-50
2023/07/24 09:07:31;;;;;;;6.32;1.60;;;;;;;;;;5102059;28;20213;-45
2023/07/24 09:09:58;;;;;;;5.53;1.65;;;;;;;;;;5101705;28;20183;-43
2023/07/24 09:12:26;;;;;;;3.47;1.55;;;;;;;;;;5101970;28;20217;-42
2023/07/24 09:15:06;;;;;;;3.03;1.60;;;;;;;;;;5100704;28;20245;-44
2023/07/24 09:17:34;;;;;;;3.75;1.85;;;;;;;;;;5095374;28;20576;-43
2023/07/24 09:20:03;;;;;;;2.85;1.75;;;;;;;;;;5087569;28;20239;-44
2023/07/24 09:22:31;;;;;;;2.60;1.65;;;;;;;;;;5072641;28;20566;-42
2023/07/24 09:25:03;;;;;;;2.72;1.42;;;;;;;;;;5074166;28;20558;-43
2023/07/24 09:27:30;;;;;;;3.05;1.55;;;;;;;;;;5082180;28;20198;-45
2023/07/24 09:29:59;;;;;;;3.05;1.25;;;;;;;;;;5083760;28;20199;-42
2023/07/24 09:32:27;;;;;;;2.00;1.33;;;;;;;;;;5093238;28;20289;-44
2023/07/24 09:34:55;;;;;;;3.92;1.70;;;;;;;;;;5093393;28;20194;-42
2023/07/24 09:37:24;;;;;;;2.17;1.45;;;;;;;;;;5081927;28;20219;-46
2023/07/24 09:39:51;;;;;;;2.75;1.70;;;;;;;;;;5073193;28;20199;-48
2023/07/24 09:42:34;;;;;;;1.77;1.40;;;;;;;;;;5037666;28;20851;-44
2023/07/24 09:45:08;;;;;;;3.70;1.90;;;;;;;;;;5081428;28;20574;-44
2023/07/24 09:47:35;;;;;;;2.67;1.50;;;;;;;;;;5091940;28;20202;-46
2023/07/24 09:50:23;;;;;;;3.10;1.75;;;;;;;;;;5082662;28;20190;-43
2023/07/24 09:52:50;;;;;;;3.10;1.83;;;;;;;;;;5081540;28;20195;-45
2023/07/24 09:55:22;;;;;;;3.35;2.00;;;;;;;;;;5078329;28;20655;-44
2023/07/24 09:57:51;;;;;;;3.55;2.10;;;;;;;;;;5062796;28;20214;-43
2023/07/24 10:00:18;;;;;;;3.20;1.92;;;;;;;;;;5063991;28;20199;-43
2023/07/24 10:02:46;;;;;;;6.13;2.03;;;;;;;;;;5081428;28;20659;-44
2023/07/24 10:05:13;;;;;;;4.38;2.40;;;;;;;;;;5063238;28;20282;-43
2023/07/24 10:07:41;;;;;;;2.28;1.60;;;;;;;;;;5062309;28;20233;-44
2023/07/24 10:10:08;;;;;;;4.53;2.03;;;;;;;;;;5054921;28;20203;-43
2023/07/24 10:12:36;;;;;;;3.92;2.13;;;;;;;;;;5073116;28;20298;-40
2023/07/24 10:15:05;;;;;;;2.90;1.80;;;;;;;;;;5073010;28;20213;-43
2023/07/24 10:17:37;;;;;;;3.22;1.80;;;;;;;;;;5072211;28;20227;-43
2023/07/24 10:20:05;;;;;;;4.68;1.98;;;;;;;;;;5076922;28;20706;-42
2023/07/24 10:22:33;;;;;;;3.10;1.85;;;;;;;;;;5093000;28;20295;-41
2023/07/24 10:25:00;;;;;;;2.10;1.50;;;;;;;;;;5093392;28;20202;-43
2023/07/24 10:27:28;;;;;;;3.08;1.75;;;;;;;;;;5091689;28;20671;-43
2023/07/24 10:30:00;;;;;;;4.72;2.20;;;;;;;;;;5093045;28;20203;-44
2023/07/24 10:32:29;;;;;;;2.70;1.73;;;;;;;;;;5093119;28;20213;-43
2023/07/24 10:35:07;;;;;;;8.48;2.00;;;;;;;;;;5096988;28;20205;-43
2023/07/24 10:37:36;;;;;;;4.28;1.70;;;;;;;;;;5097066;28;20234;-43
2023/07/24 10:40:04;;;;;;;5.47;2.20;;;;;;;;;;5078906;28;20213;-43
2023/07/24 10:42:33;;;;;;;3.05;2.00;;;;;;;;;;5096697;28;20740;-44
2023/07/24 10:45:05;;;;;;;3.13;1.83;;;;;;;;;;5097051;28;20286;-43
2023/07/24 10:47:33;;;;;;;2.50;1.70;;;;;;;;;;5096802;28;20209;-43
2023/07/24 10:50:02;;;;;;;2.92;2.10;;;;;;;;;;5096706;28;20607;-44
2023/07/24 10:52:33;;;;;;;2.47;1.83;;;;;;;;;;5096586;28;20682;-44
2023/07/24 10:55:02;;;;;;;4.10;1.88;;;;;;;;;;5096916;28;20191;-44
2023/07/24 10:57:29;;;;;;;2.13;1.60;;;;;;;;;;5096572;28;20229;-43
2023/07/24 10:59:56;;;;;;;2.85;1.80;;;;;;;;;;5096773;28;20199;-44
2023/07/24 11:02:24;;;;;;;3.97;2.05;;;;;;;;;;5096428;28;20746;-43
2023/07/24 11:04:51;;;;;;;2.25;1.50;;;;;;;;;;5095202;28;20206;-44
2023/07/24 11:07:18;;;;;;;2.88;1.60;;;;;;;;;;5113482;28;20210;-46
2023/07/24 11:09:45;;;;;;;2.50;1.63;;;;;;;;;;5116438;28;20198;-43
2023/07/24 11:12:14;;;;;;;3.25;1.77;;;;;;;;;;5116507;28;20205;-43
2023/07/24 11:14:47;;;;;;;2.97;1.50;;;;;;;;;;5080702;28;20225;-46
2023/07/24 11:17:15;;;;;;;2.90;1.50;;;;;;;;;;5116383;28;20222;-45
2023/07/24 11:19:42;;;;;;;2.70;1.73;;;;;;;;;;5116429;28;20225;-43
2023/07/24 11:22:09;;;;;;;2.88;1.88;;;;;;;;;;5116306;28;20639;-47
2023/07/24 11:24:48;;;;;;;3.28;2.00;;;;;;;;;;5116440;28;20290;-46
2023/07/24 11:27:17;;;;;;;4.20;2.33;;;;;;;;;;5116369;28;20201;-45
2023/07/24 11:29:49;;;;;;;2.47;1.80;;;;;;;;;;5116526;28;20223;-44
2023/07/24 11:32:19;;;;;;;5.72;1.90;;;;;;;;;;5116565;28;20190;-46
2023/07/24 11:34:47;;;;;;;3.72;1.70;;;;;;;;;;5116154;28;20286;-45
2023/07/24 11:37:14;;;;;;;2.38;1.65;;;;;;;;;;5116546;28;20614;-44
2023/07/24 11:39:41;;;;;;;4.50;1.65;;;;;;;;;;5098263;28;20213;-45
2023/07/24 11:42:09;;;;;;;4.13;2.10;;;;;;;;;;5116246;28;20255;-47
2023/07/24 11:56:32;;;;;;;2.55;1.60;;;;;;;;;;5110885;27;20541;-48
2023/07/24 11:59:13;;;;;;;4.25;1.52;;;;;;;;;;5103844;28;20213;-47
2023/07/24 12:01:41;;;;;;;3.22;2.08;;;;;;;;;;5103662;28;20212;-49
2023/07/24 12:04:08;;;;;;;3.05;1.63;;;;;;;;;;5109967;28;20229;-50
2023/07/24 12:06:37;;;;;;;2.00;1.60;;;;;;;;;;5106800;28;20198;-49
2023/07/24 12:09:05;;;;;;;2.85;1.95;;;;;;;;;;5105122;28;20206;-48
2023/07/24 12:11:32;;;;;;;3.70;1.90;;;;;;;;;;5109462;28;20195;-48
2023/07/24 12:14:00;;;;;;;1.60;1.38;;;;;;;;;;5109676;28;20194;-48
2023/07/24 12:16:28;;;;;;;2.97;1.80;;;;;;;;;;5104073;28;20197;-47
2023/07/24 12:18:55;;;;;;;3.10;1.85;;;;;;;;;;5109506;28;20198;-47
2023/07/24 12:21:22;;;;;;;4.57;1.95;;;;;;;;;;5109920;28;20346;-48
2023/07/24 12:23:50;;;;;;;5.10;1.98;;;;;;;;;;5105250;28;20201;-49
2023/07/24 12:26:17;;;;;;;3.75;1.85;;;;;;;;;;5104378;28;20205;-50
2023/07/24 12:28:44;;;;;;;2.47;1.73;;;;;;;;;;5107787;28;20215;-51
2023/07/24 12:31:11;;;;;;;2.58;1.65;;;;;;;;;;5104812;28;20218;-45
2023/07/24 12:33:38;;;;;;;2.55;1.52;;;;;;;;;;5107544;28;20572;-48
2023/07/24 12:36:05;;;;;;;4.15;2.05;;;;;;;;;;5107699;27;20214;-47
2023/07/24 12:38:33;;;;;;;3.00;1.67;;;;;;;;;;5107633;28;20218;-49
2023/07/24 12:41:00;;;;;;;3.60;1.90;;;;;;;;;;5107230;28;20540;-50
2023/07/24 12:43:27;;;;;;;3.53;1.50;;;;;;;;;;5108916;28;20214;-46
2023/07/24 12:45:54;;;;;;;4.95;2.08;;;;;;;;;;5108017;28;20261;-49
2023/07/24 12:48:22;;;;;;;3.33;1.83;;;;;;;;;;5109184;28;20222;-47
2023/07/24 12:50:49;;;;;;;4.43;1.52;;;;;;;;;;5108818;28;20249;-48
2023/07/24 12:53:16;;;;;;;2.78;1.65;;;;;;;;;;5108575;27;20271;-47
2023/07/24 12:55:50;;;;;;;3.05;1.75;;;;;;;;;;5101790;28;20230;-51
2023/07/24 12:58:17;;;;;;;2.17;1.63;;;;;;;;;;5095281;28;20709;-46
2023/07/24 13:00:44;;;;;;;3.22;1.98;;;;;;;;;;5094010;28;20578;-47
2023/07/24 13:03:11;;;;;;;3.30;2.03;;;;;;;;;;5091726;28;20219;-47
2023/07/24 13:05:39;;;;;;;3.95;2.03;;;;;;;;;;5094701;28;20279;-46
2023/07/24 13:08:06;;;;;;;2.67;1.73;;;;;;;;;;5094812;28;20271;-47
2023/07/24 13:10:33;;;;;;;2.88;1.80;;;;;;;;;;5094894;28;20219;-48
2023/07/24 13:13:01;;;;;;;2.90;1.77;;;;;;;;;;5094104;28;20234;-48
2023/07/24 13:15:29;;;;;;;3.45;1.85;;;;;;;;;;5093817;28;20246;-48
2023/07/24 13:17:56;;;;;;;3.03;2.15;;;;;;;;;;5092217;28;20226;-46
2023/07/24 13:20:24;;;;;;;3.40;2.00;;;;;;;;;;5094944;28;20225;-51
2023/07/24 13:22:52;;;;;;;2.67;1.67;;;;;;;;;;5094501;28;20225;-51
2023/07/24 13:25:19;;;;;;;2.33;1.50;;;;;;;;;;5094296;28;20226;-46
2023/07/24 13:27:46;;;;;;;3.40;1.80;;;;;;;;;;5094583;28;20211;-49
2023/07/24 13:30:13;;;;;;;2.38;1.88;;;;;;;;;;5093631;28;20225;-46
2023/07/24 13:32:40;;;;;;;3.47;2.28;;;;;;;;;;5094390;28;20268;-49
2023/07/24 13:35:08;;;;;;;4.18;1.98;;;;;;;;;;5094157;28;20253;-46
2023/07/24 13:37:35;;;;;;;3.30;2.00;;;;;;;;;;5093893;28;20214;-50
2023/07/24 13:40:02;;;;;;;2.55;1.90;;;;;;;;;;5094058;28;20210;-47
2023/07/24 13:42:30;;;;;;;2.65;1.80;;;;;;;;;;5094530;28;20237;-46
2023/07/24 13:44:57;;;;;;;3.25;1.90;;;;;;;;;;5087415;28;20759;-47
2023/07/24 13:47:24;;;;;;;3.08;1.85;;;;;;;;;;5094210;28;20241;-45
2023/07/24 13:49:52;;;;;;;3.85;2.40;;;;;;;;;;5094295;28;20226;-53
2023/07/24 13:52:19;;;;;;;3.25;1.83;;;;;;;;;;5090165;28;20210;-49
2023/07/24 13:54:46;;;;;;;4.97;1.95;;;;;;;;;;5091235;28;20256;-52
2023/07/24 13:57:13;;;;;;;3.63;2.25;;;;;;;;;;5094357;28;20264;-49
2023/07/24 13:59:40;;;;;;;3.90;1.90;;;;;;;;;;5093699;28;20556;-49
2023/07/24 14:02:08;;;;;;;4.10;2.40;;;;;;;;;;5091406;28;20275;-50
2023/07/24 14:04:35;;;;;;;3.25;2.33;;;;;;;;;;5094377;28;20322;-53
2023/07/24 14:07:02;;;;;;;2.78;1.90;;;;;;;;;;5094257;28;20694;-50
2023/07/24 14:09:30;;;;;;;3.30;2.30;;;;;;;;;;5093534;28;20225;-50
2023/07/24 14:11:58;;;;;;;2.60;2.03;;;;;;;;;;5093948;28;20226;-49
2023/07/24 14:14:26;;;;;;;6.80;2.20;;;;;;;;;;5093672;28;20225;-48
2023/07/24 14:16:53;;;;;;;3.75;2.42;;;;;;;;;;5093268;28;20222;-49
2023/07/24 14:19:20;;;;;;;4.65;2.20;;;;;;;;;;5091082;28;20268;-50
2023/07/24 14:21:47;;;;;;;4.03;2.20;;;;;;;;;;5093838;28;20244;-50
2023/07/24 14:24:14;;;;;;;3.90;2.42;;;;;;;;;;5094029;28;20232;-50
2023/07/24 14:26:42;;;;;;;4.57;2.35;;;;;;;;;;5093780;28;20242;-50
2023/07/24 14:29:09;;;;;;;3.17;2.28;;;;;;;;;;5093139;28;20226;-51
2023/07/24 14:31:37;;;;;;;4.13;2.33;;;;;;;;;;5090157;28;20218;-55
2023/07/24 14:34:04;;;;;;;4.55;2.40;;;;;;;;;;5088648;28;20517;-51
2023/07/24 14:36:33;;;;;;;5.15;2.25;;;;;;;;;;5071591;28;20227;-57
2023/07/24 14:39:01;;;;;;;3.95;2.45;;;;;;;;;;5072094;28;20239;-52
2023/07/24 14:41:28;;;;;;;3.75;2.60;;;;;;;;;;5078422;28;20226;-53
2023/07/24 14:43:56;;;;;;;4.40;2.72;;;;;;;;;;5082407;28;20226;-56
2023/07/24 14:46:23;;;;;;;4.65;2.72;;;;;;;;;;5084349;28;20558;-51
2023/07/24 14:48:50;;;;;;;4.35;2.53;;;;;;;;;;5072471;28;20314;-49
2023/07/24 14:51:18;;;;;;;3.55;2.50;;;;;;;;;;5072749;28;20230;-51
2023/07/24 14:53:45;;;;;;;2.75;2.08;;;;;;;;;;5081445;28;20219;-53
2023/07/24 14:56:13;;;;;;;3.40;2.47;;;;;;;;;;5090847;28;20241;-49
2023/07/24 14:58:42;;;;;;;9.05;2.78;;;;;;;;;;5093131;28;20271;-52